createdAt,value
2022-11-20T00:00:13.222Z,80.86
2022-11-20T00:02:39.640Z,81.53
2022-11-20T00:05:06.269Z,81.42
2022-11-20T00:07:32.752Z,81.87
2022-11-20T00:09:59.171Z,81.40
2022-11-20T00:12:25.535Z,81.75
2022-11-20T00:14:51.951Z,81.24
2022-11-20T00:17:18.428Z,81.36
2022-11-20T00:19:44.791Z,81.29
2022-11-20T00:22:11.185Z,81.62
2022-11-20T00:24:42.754Z,81.56
2022-11-20T00:27:09.485Z,81.67
2022-11-20T00:29:35.873Z,81.80
2022-11-20T00:32:02.308Z,81.82
2022-11-20T00:34:28.668Z,81.52
2022-11-20T00:36:55.025Z,82.12
2022-11-20T00:39:21.938Z,81.79
2022-11-20T00:41:48.529Z,81.45
2022-11-20T00:44:14.920Z,82.01
2022-11-20T00:46:41.310Z,81.83
2022-11-20T00:49:07.719Z,81.40
2022-11-20T00:51:34.112Z,82.08
2022-11-20T00:54:01.172Z,82.00
2022-11-20T00:56:27.803Z,81.79
2022-11-20T00:58:54.258Z,81.68
2022-11-20T01:01:22.399Z,81.42
2022-11-20T01:03:50.075Z,81.68
2022-11-20T01:06:26.956Z,81.64
2022-11-20T01:08:54.828Z,81.80
2022-11-20T01:11:22.448Z,82.04
2022-11-20T01:13:49.721Z,81.96
2022-11-20T01:16:17.502Z,82.47
2022-11-20T01:18:45.215Z,82.48
2022-11-20T01:21:13.220Z,82.17
2022-11-20T01:23:41.230Z,82.57
2022-11-20T01:26:09.101Z,82.37
2022-11-20T01:28:35.950Z,82.12
2022-11-20T01:31:02.673Z,82.10
2022-11-20T01:33:29.156Z,82.24
2022-11-20T01:36:04.349Z,82.26
2022-11-20T01:38:30.740Z,82.32
2022-11-20T01:40:57.246Z,82.30
2022-11-20T01:43:24.247Z,82.51
2022-11-20T01:46:02.608Z,81.75
2022-11-20T01:48:38.763Z,81.85
2022-11-20T01:51:06.978Z,82.22
2022-11-20T01:53:34.435Z,82.19
2022-11-20T01:56:02.555Z,82.86
2022-11-20T01:58:31.524Z,83.01
2022-11-20T02:00:57.926Z,83.22
2022-11-20T02:03:24.624Z,83.09
2022-11-20T02:06:00.292Z,82.73
2022-11-20T02:08:26.702Z,83.46
2022-11-20T02:10:53.156Z,83.43
2022-11-20T02:13:38.286Z,83.54
2022-11-20T02:16:05.161Z,83.24
2022-11-20T02:18:31.636Z,83.46
2022-11-20T02:21:06.714Z,82.94
2022-11-20T02:23:37.540Z,83.01
2022-11-20T02:26:06.792Z,82.70
2022-11-20T02:28:33.227Z,82.97
2022-11-20T02:30:59.622Z,83.04
2022-11-20T02:33:25.987Z,82.82
2022-11-20T02:35:52.390Z,83.11
2022-11-20T02:38:18.998Z,82.33
2022-11-20T02:40:45.425Z,82.41
2022-11-20T02:43:11.982Z,82.74
2022-11-20T02:45:38.539Z,82.60
2022-11-20T02:48:06.381Z,82.53
2022-11-20T02:50:32.764Z,82.57
2022-11-20T02:52:59.195Z,82.69
2022-11-20T02:55:25.583Z,82.48
2022-11-20T02:57:51.932Z,82.34
2022-11-20T03:00:18.408Z,82.61
2022-11-20T03:02:44.900Z,82.64
2022-11-20T03:05:11.277Z,82.25
2022-11-20T03:07:37.757Z,82.55
2022-11-20T03:10:04.872Z,82.18
2022-11-20T03:12:31.251Z,82.35
2022-11-20T03:14:57.640Z,82.41
2022-11-20T03:17:24.008Z,82.01
2022-11-20T03:19:50.367Z,81.84
2022-11-20T03:22:16.737Z,81.76
2022-11-20T03:24:43.196Z,81.83
2022-11-20T03:27:09.748Z,81.44
2022-11-20T03:29:36.640Z,81.62
2022-11-20T03:32:03.044Z,82.04
2022-11-20T03:34:29.439Z,82.14
2022-11-20T03:36:55.904Z,82.50
2022-11-20T03:39:22.420Z,82.30
2022-11-20T03:41:48.956Z,82.08
2022-11-20T03:44:15.322Z,81.70
2022-11-20T03:46:41.708Z,81.79
2022-11-20T03:49:08.265Z,81.97
2022-11-20T03:51:35.868Z,81.65
2022-11-20T03:54:04.195Z,81.32
2022-11-20T03:56:31.260Z,81.76
2022-11-20T03:58:57.966Z,81.25
2022-11-20T04:01:25.796Z,81.50
2022-11-20T04:03:56.266Z,81.59
2022-11-20T04:06:24.001Z,82.22
2022-11-20T04:08:53.750Z,81.92
2022-11-20T04:11:20.434Z,81.74
2022-11-20T04:13:47.903Z,81.80
2022-11-20T04:16:14.372Z,81.67
2022-11-20T04:18:40.755Z,81.67
2022-11-20T04:21:07.312Z,82.00
2022-11-20T04:23:33.944Z,81.96
2022-11-20T04:26:10.898Z,81.76
2022-11-20T04:28:37.457Z,82.19
2022-11-20T04:31:09.412Z,82.35
2022-11-20T04:33:36.556Z,82.49
2022-11-20T04:36:04.437Z,82.04
2022-11-20T04:38:30.933Z,82.13
2022-11-20T04:40:58.775Z,81.71
2022-11-20T04:43:25.217Z,81.89
2022-11-20T04:45:52.576Z,82.12
2022-11-20T04:48:18.936Z,81.75
2022-11-20T04:50:45.405Z,81.82
2022-11-20T04:53:11.794Z,82.06
2022-11-20T04:55:38.154Z,81.77
2022-11-20T04:58:04.844Z,81.71
2022-11-20T05:00:31.267Z,81.42
2022-11-20T05:02:57.690Z,81.27
2022-11-20T05:05:24.118Z,81.59
2022-11-20T05:07:50.746Z,81.97
2022-11-20T05:10:17.163Z,81.99
2022-11-20T05:12:43.532Z,81.60
2022-11-20T05:15:10.203Z,81.71
2022-11-20T05:17:36.626Z,81.70
2022-11-20T05:20:02.994Z,81.73
2022-11-20T05:22:29.400Z,81.62
2022-11-20T05:24:55.770Z,81.37
2022-11-20T05:27:22.164Z,81.60
2022-11-20T05:29:48.555Z,81.72
2022-11-20T05:32:14.957Z,81.44
2022-11-20T05:34:41.341Z,81.60
2022-11-20T05:37:07.734Z,81.79
2022-11-20T05:39:34.167Z,81.64
2022-11-20T05:42:19.230Z,81.63
2022-11-20T05:44:45.604Z,81.19
2022-11-20T05:47:11.968Z,81.15
2022-11-20T05:49:38.341Z,81.23
2022-11-20T05:52:04.785Z,81.65
2022-11-20T05:54:31.192Z,81.54
2022-11-20T05:56:57.545Z,81.54
2022-11-20T05:59:24.078Z,81.04
2022-11-20T06:01:50.578Z,81.71
2022-11-20T06:04:16.954Z,81.71
2022-11-20T06:06:43.376Z,81.55
2022-11-20T06:09:09.770Z,81.81
2022-11-20T06:11:36.172Z,82.02
2022-11-20T06:14:02.705Z,81.88
2022-11-20T06:16:29.148Z,82.00
2022-11-20T06:18:55.704Z,81.92
2022-11-20T06:21:23.089Z,81.98
2022-11-20T06:23:50.095Z,81.85
2022-11-20T06:26:18.335Z,81.80
2022-11-20T06:28:45.114Z,82.12
2022-11-20T06:31:12.543Z,82.31
2022-11-20T06:33:38.992Z,81.99
2022-11-20T06:36:10.396Z,81.96
2022-11-20T06:38:37.878Z,81.81
2022-11-20T06:41:04.687Z,82.04
2022-11-20T06:43:31.148Z,81.67
2022-11-20T06:45:58.525Z,81.99
2022-11-20T06:48:25.459Z,82.12
2022-11-20T06:50:51.940Z,82.41
2022-11-20T06:53:18.515Z,82.98
2022-11-20T06:55:48.151Z,83.01
2022-11-20T06:58:15.115Z,83.03
2022-11-20T07:00:41.822Z,82.98
2022-11-20T07:03:09.685Z,82.94
2022-11-20T07:05:36.554Z,83.64
2022-11-20T07:08:03.399Z,83.60
2022-11-20T07:10:29.914Z,83.60
2022-11-20T07:12:56.386Z,83.60
2022-11-20T07:15:23.794Z,83.44
2022-11-20T07:17:50.279Z,83.45
2022-11-20T07:20:17.443Z,83.78
2022-11-20T07:22:44.209Z,83.87
2022-11-20T07:25:11.140Z,84.04
2022-11-20T07:27:37.525Z,84.33
2022-11-20T07:30:04.690Z,84.33
2022-11-20T07:32:31.062Z,84.57
2022-11-20T07:34:57.474Z,84.92
2022-11-20T07:37:23.856Z,85.15
2022-11-20T07:39:50.258Z,85.20
2022-11-20T07:42:16.902Z,85.29
2022-11-20T07:44:43.320Z,84.92
2022-11-20T07:47:09.705Z,85.94
2022-11-20T07:49:36.173Z,85.82
2022-11-20T07:52:05.020Z,85.96
2022-11-20T07:54:31.841Z,85.84
2022-11-20T07:56:58.232Z,85.91
2022-11-20T07:59:24.757Z,85.33
2022-11-20T08:01:51.332Z,85.42
2022-11-20T08:04:17.770Z,85.02
2022-11-20T08:06:44.170Z,85.04
2022-11-20T08:09:12.250Z,84.78
2022-11-20T08:11:57.243Z,84.70
2022-11-20T08:14:23.648Z,85.42
2022-11-20T08:16:50.534Z,85.71
2022-11-20T08:19:20.569Z,86.81
2022-11-20T08:21:47.255Z,86.51
2022-11-20T08:24:13.679Z,86.94
2022-11-20T08:26:40.506Z,86.14
2022-11-20T08:29:06.958Z,85.95
2022-11-20T08:31:33.396Z,85.73
2022-11-20T08:33:59.819Z,85.31
2022-11-20T08:36:26.332Z,85.61
2022-11-20T08:38:53.654Z,86.13
2022-11-20T08:41:29.247Z,86.54
2022-11-20T08:44:00.427Z,87.15
2022-11-20T08:46:28.269Z,86.80
2022-11-20T08:48:54.733Z,87.04
2022-11-20T08:51:21.323Z,87.11
2022-11-20T08:53:49.570Z,87.07
2022-11-20T08:56:16.108Z,86.43
2022-11-20T08:59:15.446Z,86.37
2022-11-20T09:01:31.222Z,86.35
2022-11-20T09:03:58.237Z,86.65
2022-11-20T09:06:24.656Z,86.38
2022-11-20T09:08:54.270Z,86.66
2022-11-20T09:11:20.706Z,86.60
2022-11-20T09:13:47.057Z,86.38
2022-11-20T09:16:13.461Z,86.58
2022-11-20T09:18:40.013Z,86.59
2022-11-20T09:21:07.688Z,86.81
2022-11-20T09:23:36.072Z,86.73
2022-11-20T09:26:03.325Z,86.67
2022-11-20T09:28:30.503Z,86.69
2022-11-20T09:30:56.966Z,87.29
2022-11-20T09:33:23.374Z,87.12
2022-11-20T09:35:49.764Z,87.07
2022-11-20T09:38:16.155Z,86.58
2022-11-20T09:40:47.005Z,86.63
2022-11-20T09:43:34.846Z,87.46
2022-11-20T09:46:20.923Z,86.91
2022-11-20T09:49:00.921Z,87.18
2022-11-20T09:51:51.001Z,87.55
2022-11-20T09:54:19.072Z,87.26
2022-11-20T09:56:56.118Z,87.18
2022-11-20T09:59:41.385Z,86.82
2022-11-20T10:02:16.081Z,86.54
2022-11-20T10:04:45.909Z,86.59
2022-11-20T10:07:31.526Z,86.90
2022-11-20T10:09:58.784Z,86.45
2022-11-20T10:12:34.052Z,86.69
2022-11-20T10:15:03.238Z,86.63
2022-11-20T10:17:29.644Z,86.76
2022-11-20T10:20:03.814Z,86.49
2022-11-20T10:22:48.920Z,86.53
2022-11-20T10:25:15.284Z,86.30
2022-11-20T10:27:41.664Z,86.13
2022-11-20T10:30:13.397Z,86.20
2022-11-20T10:32:41.355Z,87.22
2022-11-20T10:35:16.593Z,86.70
2022-11-20T10:37:45.532Z,86.48
2022-11-20T10:40:11.947Z,86.41
2022-11-20T10:42:52.233Z,86.34
2022-11-20T10:45:30.821Z,86.50
2022-11-20T10:48:20.883Z,86.65
2022-11-20T10:51:00.571Z,86.55
2022-11-20T10:53:34.977Z,86.57
2022-11-20T10:56:21.762Z,86.20
2022-11-20T10:58:53.494Z,86.37
2022-11-20T11:01:23.243Z,86.44
2022-11-20T11:03:50.519Z,86.07
2022-11-20T11:06:22.917Z,86.06
2022-11-20T11:08:50.526Z,86.31
2022-11-20T11:11:30.023Z,86.11
2022-11-20T11:14:09.431Z,86.69
2022-11-20T11:16:36.759Z,86.85
2022-11-20T11:19:06.895Z,86.95
2022-11-20T11:21:33.445Z,87.00
2022-11-20T11:24:27.000Z,87.28
2022-11-20T11:26:58.847Z,87.46
2022-11-20T11:29:27.733Z,87.75
2022-11-20T11:32:03.908Z,87.49
2022-11-20T11:34:30.318Z,87.29
2022-11-20T11:36:58.186Z,87.31
2022-11-20T11:39:26.009Z,87.23
2022-11-20T11:41:52.903Z,87.46
2022-11-20T11:44:43.677Z,87.86
2022-11-20T11:47:12.827Z,87.32
2022-11-20T11:49:39.209Z,86.83
2022-11-20T11:52:09.817Z,86.06
2022-11-20T11:54:39.737Z,86.47
2022-11-20T11:57:19.790Z,86.52
2022-11-20T11:59:46.247Z,86.30
2022-11-20T12:02:25.207Z,86.27
2022-11-20T12:04:56.124Z,86.68
2022-11-20T12:07:50.370Z,85.85
2022-11-20T12:10:20.575Z,85.52
2022-11-20T12:12:50.818Z,85.92
2022-11-20T12:15:23.789Z,84.86
2022-11-20T12:17:50.154Z,85.51
2022-11-20T12:20:17.122Z,85.96
2022-11-20T12:22:43.487Z,86.24
2022-11-20T12:25:18.803Z,85.33
2022-11-20T12:27:52.993Z,85.25
2022-11-20T12:30:20.424Z,85.71
2022-11-20T12:32:56.011Z,85.28
2022-11-20T12:35:37.813Z,85.50
2022-11-20T12:38:07.234Z,85.16
2022-11-20T12:40:44.184Z,85.02
2022-11-20T12:43:32.378Z,85.19
2022-11-20T12:46:12.257Z,85.21
2022-11-20T12:48:41.134Z,85.96
2022-11-20T12:51:30.307Z,85.96
2022-11-20T12:53:59.503Z,85.45
2022-11-20T12:56:35.392Z,85.02
2022-11-20T12:59:14.032Z,85.23
2022-11-20T13:01:44.875Z,85.06
2022-11-20T13:04:32.606Z,84.47
2022-11-20T13:06:59.287Z,84.11
2022-11-20T13:09:27.692Z,84.67
2022-11-20T13:12:12.837Z,84.85
2022-11-20T13:14:42.278Z,85.03
2022-11-20T13:17:27.539Z,84.68
2022-11-20T13:19:55.456Z,84.58
2022-11-20T13:22:25.869Z,84.38
2022-11-20T13:24:53.062Z,84.10
2022-11-20T13:27:21.542Z,84.53
2022-11-20T13:30:14.309Z,84.49
2022-11-20T13:32:49.050Z,84.34
2022-11-20T13:35:24.611Z,85.08
2022-11-20T13:38:00.245Z,84.55
2022-11-20T13:40:26.674Z,84.73
2022-11-20T13:43:01.837Z,84.69
2022-11-20T13:45:29.498Z,84.78
2022-11-20T13:47:56.826Z,85.12
2022-11-20T13:50:33.736Z,85.46
2022-11-20T13:53:03.186Z,85.62
2022-11-20T13:55:35.667Z,86.15
2022-11-20T13:58:20.315Z,86.08
2022-11-20T14:00:54.234Z,85.96
2022-11-20T14:03:43.979Z,85.96
2022-11-20T14:06:14.796Z,86.62
2022-11-20T14:08:44.468Z,86.66
2022-11-20T14:11:15.710Z,86.49
2022-11-20T14:13:52.957Z,86.77
2022-11-20T14:16:22.520Z,86.88
2022-11-20T14:18:48.974Z,87.04
2022-11-20T14:21:29.217Z,86.46
2022-11-20T14:24:11.416Z,86.93
2022-11-20T14:26:39.093Z,86.43
2022-11-20T14:29:05.501Z,86.28
2022-11-20T14:31:33.054Z,86.27
2022-11-20T14:33:59.488Z,86.37
2022-11-20T14:36:26.590Z,86.55
2022-11-20T14:38:53.392Z,85.72
2022-11-20T14:41:21.392Z,86.06
2022-11-20T14:43:50.790Z,85.45
2022-11-20T14:46:17.482Z,85.60
2022-11-20T14:48:56.090Z,85.43
2022-11-20T14:51:28.553Z,85.30
2022-11-20T14:53:55.043Z,85.45
2022-11-20T14:56:25.175Z,85.90
2022-11-20T14:58:58.659Z,85.75
2022-11-20T15:01:32.053Z,86.04
2022-11-20T15:04:07.763Z,85.74
2022-11-20T15:06:34.313Z,85.76
2022-11-20T15:09:00.789Z,85.32
2022-11-20T15:11:29.368Z,85.25
2022-11-20T15:13:56.380Z,85.24
2022-11-20T15:16:24.600Z,85.21
2022-11-20T15:18:51.206Z,84.98
2022-11-20T15:21:18.913Z,85.11
2022-11-20T15:23:45.623Z,85.04
2022-11-20T15:26:18.420Z,85.28
2022-11-20T15:28:48.731Z,85.16
2022-11-20T15:31:16.909Z,85.00
2022-11-20T15:33:43.677Z,84.80
2022-11-20T15:36:10.285Z,85.01
2022-11-20T15:38:36.864Z,84.93
2022-11-20T15:41:03.253Z,84.86
2022-11-20T15:43:29.692Z,85.21
2022-11-20T15:45:57.747Z,84.96
2022-11-20T15:48:25.805Z,84.85
2022-11-20T15:50:52.154Z,85.65
2022-11-20T15:53:18.666Z,85.49
2022-11-20T15:55:45.077Z,85.58
2022-11-20T15:58:11.505Z,86.20
2022-11-20T16:00:37.901Z,86.41
2022-11-20T16:03:04.348Z,86.46
2022-11-20T16:05:31.023Z,86.65
2022-11-20T16:07:57.873Z,86.42
2022-11-20T16:10:24.658Z,86.25
2022-11-20T16:13:09.911Z,85.98
2022-11-20T16:15:48.922Z,86.21
2022-11-20T16:18:16.942Z,85.93
2022-11-20T16:20:43.910Z,85.80
2022-11-20T16:23:10.305Z,85.92
2022-11-20T16:25:36.742Z,86.00
2022-11-20T16:28:03.227Z,85.52
2022-11-20T16:30:29.703Z,85.68
2022-11-20T16:32:56.139Z,85.68
2022-11-20T16:35:22.513Z,85.75
2022-11-20T16:37:48.914Z,85.69
2022-11-20T16:40:15.522Z,85.55
2022-11-20T16:42:41.910Z,85.46
2022-11-20T16:45:08.503Z,85.71
2022-11-20T16:47:35.610Z,85.76
2022-11-20T16:50:02.938Z,86.07
2022-11-20T16:52:30.350Z,86.09
2022-11-20T16:54:56.766Z,86.10
2022-11-20T16:57:23.478Z,86.42
2022-11-20T16:59:49.906Z,85.72
2022-11-20T17:02:16.533Z,85.70
2022-11-20T17:04:42.974Z,86.03
2022-11-20T17:07:09.561Z,86.51
2022-11-20T17:09:35.963Z,86.79
2022-11-20T17:12:02.383Z,86.43
2022-11-20T17:14:28.769Z,86.36
2022-11-20T17:16:55.185Z,87.63
2022-11-20T17:19:21.625Z,87.45
2022-11-20T17:21:48.052Z,87.11
2022-11-20T17:24:16.136Z,86.77
2022-11-20T17:26:43.359Z,86.86
2022-11-20T17:29:19.326Z,86.83
2022-11-20T17:31:46.270Z,86.86
2022-11-20T17:34:13.425Z,86.66
2022-11-20T17:36:45.016Z,86.86
2022-11-20T17:39:12.581Z,87.48
2022-11-20T17:41:39.027Z,86.43
2022-11-20T17:44:05.495Z,86.29
2022-11-20T17:46:33.476Z,85.87
2022-11-20T17:49:00.240Z,85.71
2022-11-20T17:51:27.825Z,85.68
2022-11-20T17:53:59.027Z,85.47
2022-11-20T17:56:43.825Z,85.55
2022-11-20T17:59:11.896Z,86.21
2022-11-20T18:01:39.422Z,85.29
2022-11-20T18:04:06.440Z,84.98
2022-11-20T18:06:33.127Z,85.25
2022-11-20T18:09:00.051Z,85.77
2022-11-20T18:11:27.803Z,85.67
2022-11-20T18:14:13.913Z,85.11
2022-11-20T18:16:44.527Z,84.77
2022-11-20T18:19:11.828Z,85.11
2022-11-20T18:21:38.221Z,84.91
2022-11-20T18:24:04.840Z,85.58
2022-11-20T18:26:31.298Z,86.28
2022-11-20T18:28:57.921Z,85.26
2022-11-20T18:31:24.426Z,84.98
2022-11-20T18:33:52.533Z,85.11
2022-11-20T18:36:20.047Z,85.80
2022-11-20T18:38:47.408Z,85.91
2022-11-20T18:41:33.538Z,85.96
2022-11-20T18:44:19.196Z,85.71
2022-11-20T18:46:45.602Z,85.16
2022-11-20T18:49:12.323Z,84.92
2022-11-20T18:51:39.416Z,85.28
2022-11-20T18:54:06.132Z,85.44
2022-11-20T18:56:32.841Z,85.29
2022-11-20T18:59:01.535Z,84.94
2022-11-20T19:01:28.225Z,85.14
2022-11-20T19:03:54.718Z,84.96
2022-11-20T19:06:21.195Z,85.38
2022-11-20T19:08:47.754Z,85.53
2022-11-20T19:11:14.380Z,84.77
2022-11-20T19:13:40.805Z,85.13
2022-11-20T19:16:14.377Z,85.11
2022-11-20T19:18:41.102Z,84.93
2022-11-20T19:21:11.512Z,84.59
2022-11-20T19:23:38.348Z,84.81
2022-11-20T19:26:05.469Z,84.95
2022-11-20T19:28:33.081Z,84.13
2022-11-20T19:31:06.685Z,84.25
2022-11-20T19:33:33.416Z,84.69
2022-11-20T19:36:16.518Z,83.79
2022-11-20T19:38:47.777Z,83.89
2022-11-20T19:41:14.989Z,84.33
2022-11-20T19:43:41.392Z,84.15
2022-11-20T19:46:07.785Z,84.34
2022-11-20T19:48:34.981Z,84.23
2022-11-20T19:51:21.640Z,84.08
2022-11-20T19:53:48.150Z,83.81
2022-11-20T19:56:15.028Z,84.02
2022-11-20T19:58:41.940Z,83.68
2022-11-20T20:01:09.953Z,84.08
2022-11-20T20:03:37.403Z,84.05
2022-11-20T20:06:04.627Z,84.17
2022-11-20T20:08:31.329Z,83.79
2022-11-20T20:10:59.631Z,84.04
2022-11-20T20:13:26.654Z,84.00
2022-11-20T20:15:53.262Z,83.88
2022-11-20T20:18:19.652Z,84.10
2022-11-20T20:20:46.027Z,83.60
2022-11-20T20:23:12.431Z,83.80
2022-11-20T20:25:38.854Z,83.51
2022-11-20T20:28:05.648Z,83.23
2022-11-20T20:30:32.097Z,83.72
2022-11-20T20:32:58.484Z,83.34
2022-11-20T20:35:25.121Z,83.89
2022-11-20T20:37:51.676Z,83.94
2022-11-20T20:40:19.298Z,84.10
2022-11-20T20:42:45.731Z,84.05
2022-11-20T20:45:12.176Z,83.94
2022-11-20T20:47:39.391Z,83.71
2022-11-20T20:50:07.099Z,83.42
2022-11-20T20:52:33.509Z,83.77
2022-11-20T20:55:00.165Z,83.58
2022-11-20T20:57:28.513Z,83.85
2022-11-20T20:59:55.600Z,84.00
2022-11-20T21:02:22.963Z,84.36
2022-11-20T21:04:50.045Z,84.76
2022-11-20T21:07:17.104Z,84.24
2022-11-20T21:09:43.574Z,84.18
2022-11-20T21:12:10.394Z,84.72
2022-11-20T21:14:36.800Z,85.26
2022-11-20T21:17:03.212Z,85.31
2022-11-20T21:19:29.660Z,84.86
2022-11-20T21:21:58.955Z,85.23
2022-11-20T21:24:31.510Z,85.27
2022-11-20T21:26:58.288Z,85.16
2022-11-20T21:29:26.160Z,84.54
2022-11-20T21:31:53.358Z,84.20
2022-11-20T21:34:20.006Z,83.79
2022-11-20T21:36:46.760Z,83.87
2022-11-20T21:39:14.278Z,84.35
2022-11-20T21:41:41.215Z,84.20
2022-11-20T21:44:30.043Z,83.98
2022-11-20T21:46:56.000Z,83.68
2022-11-20T21:49:22.694Z,83.97
2022-11-20T21:51:49.354Z,84.01
2022-11-20T21:54:17.499Z,84.40
2022-11-20T21:56:43.859Z,84.78
2022-11-20T21:59:11.818Z,85.05
2022-11-20T22:01:38.262Z,84.63
2022-11-20T22:04:04.750Z,84.64
2022-11-20T22:06:34.896Z,84.62
2022-11-20T22:09:02.187Z,84.88
2022-11-20T22:11:28.866Z,84.50
2022-11-20T22:14:14.069Z,83.77
2022-11-20T22:16:40.605Z,83.99
2022-11-20T22:19:07.045Z,84.60
2022-11-20T22:21:33.805Z,84.62
2022-11-20T22:24:00.523Z,84.32
2022-11-20T22:26:28.409Z,84.61
2022-11-20T22:28:55.962Z,84.45
2022-11-20T22:31:23.181Z,84.46
2022-11-20T22:33:49.802Z,84.42
2022-11-20T22:36:17.726Z,84.39
2022-11-20T22:38:44.630Z,84.38
2022-11-20T22:41:15.321Z,84.24
2022-11-20T22:43:42.273Z,83.86
2022-11-20T22:46:10.084Z,83.81
2022-11-20T22:48:37.453Z,84.00
2022-11-20T22:51:05.054Z,83.63
2022-11-20T22:53:31.788Z,83.89
2022-11-20T22:55:58.276Z,83.95
2022-11-20T22:58:24.667Z,83.53
2022-11-20T23:00:51.208Z,83.66
2022-11-20T23:03:17.683Z,83.42
2022-11-20T23:05:44.132Z,83.32
2022-11-20T23:08:10.528Z,83.73
2022-11-20T23:10:36.958Z,83.54
2022-11-20T23:13:03.403Z,83.24
2022-11-20T23:15:29.844Z,83.32
2022-11-20T23:17:56.260Z,83.09
2022-11-20T23:20:22.626Z,82.82
2022-11-20T23:22:49.426Z,82.90
2022-11-20T23:25:15.801Z,82.53
2022-11-20T23:27:42.180Z,82.76
2022-11-20T23:30:09.101Z,82.64
2022-11-20T23:32:35.499Z,83.16
2022-11-20T23:35:01.852Z,82.69
2022-11-20T23:37:28.242Z,82.59
2022-11-20T23:39:54.606Z,82.93
2022-11-20T23:42:20.973Z,83.13
2022-11-20T23:44:47.345Z,83.35
2022-11-20T23:47:13.812Z,83.22
2022-11-20T23:49:40.173Z,83.02
2022-11-20T23:52:06.576Z,82.68
2022-11-20T23:54:32.984Z,82.94
2022-11-20T23:56:59.361Z,82.57
2022-11-20T23:59:25.998Z,82.55
